Prudence Island, Rhode Island
Current Conditions -  °F | °C
As of 11:39 AM on Tuesday 21 Oct 2014 (Local Time) from KUUU Reporting Station
Overcast Overcast  
Wind Chill: 63°   Ceiling: 1200
Heat Index: 63°   Visibility: 10mi
Dew Point: 56°   Wind: 13mph
Humidity: 78%   Direction: 150°SSE
Pressure: 29.93"   Gusts: NA
Location:  41.62°N, 71.31°W
Report Text: KUUU 211539Z AUTO 15011KT 10SM BKN012 BKN044 OVC080 17/13 A2993 RMK AO2 T01720133
Loading
Personal Weather Stations






























Interactive Weather Map
Tropical Storm Tracking
New forecast layout! Learn more

10-Day Weather Forecast

Advertisements
Track Severe Weather on mobile